createdAt,value
2022-08-23T00:03:42.588Z,29.40
2022-08-23T00:08:50.314Z,29.40
2022-08-23T00:13:56.341Z,29.40
2022-08-23T00:19:01.640Z,29.30
2022-08-23T00:24:09.033Z,29.20
2022-08-23T00:29:14.647Z,29.30
2022-08-23T00:34:19.427Z,29.40
2022-08-23T00:39:25.096Z,29.40
2022-08-23T00:44:53.843Z,29.50
2022-08-23T00:50:23.757Z,29.60
2022-08-23T00:55:30.680Z,29.80
2022-08-23T01:00:38.065Z,30.70
2022-08-23T01:05:54.217Z,31.20
2022-08-23T01:11:10.467Z,31.80
2022-08-23T01:16:28.224Z,32.00
2022-08-23T01:21:46.194Z,31.90
2022-08-23T01:26:52.095Z,32.30
2022-08-23T01:31:58.143Z,32.90
2022-08-23T01:37:03.684Z,32.70
2022-08-23T01:42:09.758Z,32.70
2022-08-23T01:47:15.355Z,32.80
2022-08-23T01:52:21.053Z,33.90
2022-08-23T01:57:27.039Z,34.70
2022-08-23T02:02:33.219Z,35.10
2022-08-23T02:07:38.640Z,35.20
2022-08-23T02:12:48.223Z,34.60
2022-08-23T02:17:56.389Z,33.80
2022-08-23T02:23:02.115Z,33.30
2022-08-23T02:28:09.467Z,32.80
2022-08-23T02:33:16.112Z,32.30
2022-08-23T02:38:23.383Z,31.80
2022-08-23T02:43:29.250Z,31.60
2022-08-23T02:48:36.720Z,31.70
2022-08-23T02:53:43.999Z,31.60
2022-08-23T02:58:54.222Z,31.80
2022-08-23T03:04:02.295Z,32.10
2022-08-23T03:09:12.766Z,32.30
2022-08-23T03:14:19.000Z,32.60
2022-08-23T03:19:25.864Z,32.60
2022-08-23T03:24:31.344Z,32.40
2022-08-23T03:29:39.401Z,32.40
2022-08-23T03:34:45.966Z,32.10
2022-08-23T03:39:51.842Z,31.90
2022-08-23T03:45:01.584Z,31.80
2022-08-23T03:50:09.060Z,31.10
2022-08-23T03:55:17.739Z,30.20
2022-08-23T04:00:26.328Z,29.30
2022-08-23T04:05:35.342Z,28.80
2022-08-23T04:10:45.998Z,28.80
2022-08-23T04:15:52.435Z,28.80
2022-08-23T04:21:00.004Z,28.80
2022-08-23T04:26:07.317Z,28.90
2022-08-23T04:31:18.266Z,29.00
2022-08-23T04:36:26.487Z,29.00
2022-08-23T04:41:53.998Z,28.90
2022-08-23T04:46:59.790Z,28.90
2022-08-23T04:52:08.364Z,28.60
2022-08-23T04:57:14.181Z,28.30
2022-08-23T05:02:22.200Z,28.30
2022-08-23T05:07:30.967Z,28.00
2022-08-23T05:12:50.004Z,28.00
2022-08-23T05:18:05.540Z,28.30
2022-08-23T05:23:13.049Z,28.40
2022-08-23T05:28:36.566Z,28.50
2022-08-23T05:33:55.589Z,28.50
2022-08-23T05:39:10.017Z,28.60
2022-08-23T05:44:21.829Z,29.00
2022-08-23T05:49:27.456Z,29.30
2022-08-23T05:54:33.363Z,29.50
2022-08-23T06:00:06.011Z,29.70
2022-08-23T06:05:13.019Z,30.00
2022-08-23T06:10:21.928Z,30.30
2022-08-23T06:15:36.338Z,30.00
2022-08-23T06:20:42.208Z,30.20
2022-08-23T06:25:52.636Z,31.30
2022-08-23T06:31:00.153Z,31.70
2022-08-23T06:36:15.432Z,31.20
2022-08-23T06:41:41.072Z,31.60
2022-08-23T06:47:09.166Z,33.10
2022-08-23T06:52:15.765Z,33.20
2022-08-23T06:57:41.985Z,32.60
2022-08-23T07:03:19.679Z,31.50
2022-08-23T07:08:43.690Z,30.80
2022-08-23T07:13:49.738Z,30.40
2022-08-23T07:18:56.977Z,30.10
2022-08-23T07:24:02.665Z,30.00
2022-08-23T07:29:12.847Z,29.90
2022-08-23T07:34:18.934Z,29.80
2022-08-23T07:39:27.931Z,29.80
2022-08-23T07:44:35.692Z,29.80
2022-08-23T07:49:43.199Z,29.80
2022-08-23T07:54:49.807Z,29.80
2022-08-23T08:00:08.755Z,29.70
2022-08-23T08:05:39.245Z,29.60
2022-08-23T08:10:45.468Z,29.50
2022-08-23T08:15:51.002Z,29.40
2022-08-23T08:20:59.374Z,29.30
2022-08-23T08:26:37.258Z,29.20
2022-08-23T08:31:43.494Z,29.10
2022-08-23T08:36:55.365Z,29.10
2022-08-23T08:42:09.264Z,29.00
2022-08-23T08:47:19.511Z,29.00
2022-08-23T08:52:39.289Z,28.90
2022-08-23T08:57:52.906Z,28.90
2022-08-23T09:03:01.343Z,28.90
2022-08-23T09:08:21.977Z,28.70
2022-08-23T09:13:57.368Z,28.50
2022-08-23T09:19:06.533Z,28.40
2022-08-23T09:24:12.704Z,28.30
2022-08-23T09:29:37.505Z,28.20
2022-08-23T09:34:45.673Z,28.10
2022-08-23T09:39:56.943Z,28.00
2022-08-23T09:45:06.192Z,28.00
2022-08-23T09:50:30.887Z,28.20
2022-08-23T09:55:54.527Z,28.20
2022-08-23T10:01:21.769Z,28.30
2022-08-23T10:06:39.540Z,28.20
2022-08-23T10:11:47.834Z,28.10
2022-08-23T10:17:20.691Z,28.10
2022-08-23T10:22:30.043Z,28.10
2022-08-23T10:28:54.213Z,28.20
2022-08-23T10:34:18.619Z,28.30
2022-08-23T10:39:28.947Z,28.30
2022-08-23T10:45:31.779Z,28.30
2022-08-23T10:57:03.568Z,28.20
2022-08-23T11:02:29.069Z,28.10
2022-08-23T11:08:16.864Z,28.10
2022-08-23T11:13:33.585Z,28.10
2022-08-23T11:18:51.297Z,28.10
2022-08-23T11:24:07.393Z,28.10
2022-08-23T11:29:13.873Z,28.10
2022-08-23T11:34:44.555Z,28.10
2022-08-23T11:40:04.392Z,28.10
2022-08-23T11:45:32.825Z,28.10
2022-08-23T11:50:55.894Z,28.10
2022-08-23T11:56:18.724Z,28.10
2022-08-23T12:01:37.694Z,28.10
2022-08-23T12:07:03.255Z,28.10
2022-08-23T12:12:24.918Z,28.00
2022-08-23T12:17:34.057Z,28.00
2022-08-23T12:23:01.733Z,27.90
2022-08-23T12:28:39.394Z,27.80
2022-08-23T12:34:06.430Z,27.80
2022-08-23T12:39:30.162Z,27.80
2022-08-23T12:44:35.897Z,27.80
2022-08-23T12:49:41.076Z,27.80
2022-08-23T12:54:51.998Z,27.80
2022-08-23T13:00:17.170Z,27.80
2022-08-23T13:05:37.582Z,27.90
2022-08-23T13:10:45.388Z,27.80
2022-08-23T13:15:58.120Z,27.80
2022-08-23T13:21:34.083Z,27.80
2022-08-23T13:26:48.482Z,27.80
2022-08-23T13:32:04.179Z,27.80
2022-08-23T13:37:39.067Z,27.80
2022-08-23T13:42:54.222Z,27.80
2022-08-23T13:48:13.082Z,27.90
2022-08-23T13:53:46.545Z,27.90
2022-08-23T13:59:54.527Z,27.80
2022-08-23T14:04:59.982Z,27.90
2022-08-23T14:10:06.518Z,27.90
2022-08-23T14:15:13.034Z,28.00
2022-08-23T14:25:47.241Z,27.90
2022-08-23T14:30:53.399Z,27.90
2022-08-23T14:35:58.734Z,27.90
2022-08-23T14:41:08.174Z,27.90
2022-08-23T14:46:13.856Z,27.90
2022-08-23T14:51:38.411Z,27.80
2022-08-23T14:56:49.310Z,27.80
2022-08-23T15:01:56.694Z,27.70
2022-08-23T15:07:18.922Z,27.70
2022-08-23T15:17:57.248Z,27.70
2022-08-23T15:23:02.876Z,27.70
2022-08-23T15:28:12.870Z,27.60
2022-08-23T15:33:23.417Z,27.60
2022-08-23T15:38:33.515Z,27.60
2022-08-23T15:43:40.682Z,27.60
2022-08-23T15:48:59.198Z,27.60
2022-08-23T15:54:05.210Z,27.60
2022-08-23T15:59:15.145Z,27.60
2022-08-23T16:04:20.699Z,27.60
2022-08-23T16:09:26.370Z,27.60
2022-08-23T16:14:33.929Z,27.60
2022-08-23T16:19:39.415Z,27.60
2022-08-23T16:24:45.046Z,27.60
2022-08-23T16:29:50.115Z,27.60
2022-08-23T16:34:56.088Z,27.60
2022-08-23T16:40:01.506Z,27.50
2022-08-23T16:45:07.974Z,27.50
2022-08-23T16:50:17.430Z,27.50
2022-08-23T16:55:22.850Z,27.50
2022-08-23T17:00:28.421Z,27.50
2022-08-23T17:05:34.019Z,27.50
2022-08-23T17:10:39.099Z,27.40
2022-08-23T17:15:45.492Z,27.50
2022-08-23T17:20:51.747Z,27.40
2022-08-23T17:25:59.712Z,27.40
2022-08-23T17:31:06.010Z,27.50
2022-08-23T17:36:32.262Z,27.50
2022-08-23T17:41:38.576Z,27.50
2022-08-23T17:46:46.619Z,27.50
2022-08-23T17:51:52.133Z,27.40
2022-08-23T17:56:57.641Z,27.40
2022-08-23T18:02:03.319Z,27.40
2022-08-23T18:07:08.809Z,27.40
2022-08-23T18:12:14.889Z,27.40
2022-08-23T18:17:20.349Z,27.40
2022-08-23T18:22:25.723Z,27.40
2022-08-23T18:27:49.110Z,27.40
2022-08-23T18:32:54.626Z,27.40
2022-08-23T18:38:00.334Z,27.30
2022-08-23T18:43:05.918Z,27.30
2022-08-23T18:48:13.672Z,27.30
2022-08-23T18:53:20.999Z,27.30
2022-08-23T18:58:26.409Z,27.30
2022-08-23T19:03:33.701Z,27.20
2022-08-23T19:08:38.911Z,27.20
2022-08-23T19:13:44.505Z,27.20
2022-08-23T19:18:49.512Z,27.20
2022-08-23T19:23:57.241Z,27.20
2022-08-23T19:29:10.047Z,27.20
2022-08-23T19:34:19.769Z,27.30
2022-08-23T19:39:26.066Z,27.30
2022-08-23T19:44:34.151Z,27.30
2022-08-23T19:49:39.744Z,27.30
2022-08-23T19:54:45.067Z,27.20
2022-08-23T19:59:50.063Z,27.20
2022-08-23T20:04:55.544Z,27.20
2022-08-23T20:10:01.133Z,27.20
2022-08-23T20:15:06.957Z,27.20
2022-08-23T20:20:15.176Z,27.30
2022-08-23T20:25:20.833Z,27.30
2022-08-23T20:30:26.355Z,27.30
2022-08-23T20:35:32.477Z,27.30
2022-08-23T20:40:37.831Z,27.30
2022-08-23T20:45:42.996Z,27.30
2022-08-23T20:50:53.463Z,27.30
2022-08-23T20:55:59.802Z,27.30
2022-08-23T21:01:10.188Z,27.30
2022-08-23T21:06:26.508Z,27.30
2022-08-23T21:11:32.292Z,27.30
2022-08-23T21:16:37.751Z,27.40
2022-08-23T21:21:43.842Z,27.40
2022-08-23T21:26:50.170Z,27.40
2022-08-23T21:31:55.614Z,27.40
2022-08-23T21:37:00.854Z,27.40
2022-08-23T21:42:15.384Z,27.40
2022-08-23T21:47:22.233Z,27.40
2022-08-23T21:52:28.326Z,27.30
2022-08-23T21:57:33.062Z,27.30
2022-08-23T22:02:38.741Z,27.20
2022-08-23T22:07:43.770Z,27.20
2022-08-23T22:12:49.903Z,27.30
2022-08-23T22:17:55.183Z,27.30
2022-08-23T22:23:01.829Z,27.40
2022-08-23T22:28:07.557Z,27.40
2022-08-23T22:33:14.422Z,27.30
2022-08-23T22:38:20.699Z,27.30
2022-08-23T22:43:26.519Z,27.30
2022-08-23T22:48:33.765Z,27.30
2022-08-23T22:53:41.137Z,27.30
2022-08-23T22:58:47.877Z,27.30
2022-08-23T23:03:58.132Z,27.30
2022-08-23T23:09:03.595Z,27.30
2022-08-23T23:14:10.007Z,27.40
2022-08-23T23:19:33.530Z,27.50
2022-08-23T23:24:41.288Z,27.60
2022-08-23T23:29:47.423Z,27.80
2022-08-23T23:34:52.706Z,28.10
2022-08-23T23:39:58.447Z,28.40
2022-08-23T23:45:05.508Z,28.60
2022-08-23T23:50:12.864Z,28.70
2022-08-23T23:55:20.813Z,28.80
